createdAt,value
2023-08-25T00:00:11.588Z,18.88
2023-08-25T00:02:39.738Z,18.86
2023-08-25T00:05:08.460Z,18.86
2023-08-25T00:07:36.614Z,18.80
2023-08-25T00:10:05.082Z,18.73
2023-08-25T00:12:33.082Z,18.79
2023-08-25T00:15:02.614Z,18.82
2023-08-25T00:17:30.743Z,18.81
2023-08-25T00:19:59.124Z,18.88
2023-08-25T00:22:27.504Z,18.85
2023-08-25T00:24:57.425Z,18.87
2023-08-25T00:27:25.480Z,18.81
2023-08-25T00:29:54.407Z,18.82
2023-08-25T00:32:24.059Z,18.79
2023-08-25T00:34:52.603Z,18.69
2023-08-25T00:37:20.905Z,18.79
2023-08-25T00:39:49.143Z,18.79
2023-08-25T00:42:17.058Z,18.79
2023-08-25T00:44:45.071Z,18.74
2023-08-25T00:47:13.889Z,18.80
2023-08-25T00:49:44.158Z,18.75
2023-08-25T00:52:13.277Z,18.78
2023-08-25T00:54:42.259Z,18.71
2023-08-25T00:57:10.381Z,18.78
2023-08-25T00:59:39.083Z,18.77
2023-08-25T01:02:07.509Z,18.75
2023-08-25T01:04:35.920Z,18.71
2023-08-25T01:07:05.819Z,18.76
2023-08-25T01:09:34.966Z,18.75
2023-08-25T01:12:06.219Z,18.79
2023-08-25T01:14:43.676Z,18.76
2023-08-25T01:17:15.955Z,18.76
2023-08-25T01:19:53.592Z,18.72
2023-08-25T01:22:29.737Z,18.72
2023-08-25T01:25:05.502Z,18.64
2023-08-25T01:27:36.257Z,18.66
2023-08-25T01:30:04.294Z,18.67
2023-08-25T01:32:32.369Z,18.65
2023-08-25T01:35:00.802Z,18.59
2023-08-25T01:37:33.465Z,18.60
2023-08-25T01:40:09.635Z,18.51
2023-08-25T01:42:42.062Z,18.58
2023-08-25T01:45:11.076Z,18.50
2023-08-25T01:47:40.584Z,18.56
2023-08-25T01:50:12.482Z,18.58
2023-08-25T01:52:41.053Z,18.40
2023-08-25T01:55:12.688Z,18.23
2023-08-25T01:57:42.140Z,18.28
2023-08-25T02:00:10.889Z,18.24
2023-08-25T02:02:38.890Z,18.23
2023-08-25T02:05:07.921Z,18.22
2023-08-25T02:07:36.468Z,18.20
2023-08-25T02:10:04.666Z,18.15
2023-08-25T02:12:32.733Z,18.19
2023-08-25T02:15:02.301Z,18.05
2023-08-25T02:17:30.381Z,18.04
2023-08-25T02:19:58.909Z,18.15
2023-08-25T02:22:26.977Z,18.03
2023-08-25T02:24:55.031Z,18.15
2023-08-25T02:27:23.314Z,18.19
2023-08-25T02:29:51.266Z,18.20
2023-08-25T02:32:20.863Z,18.17
2023-08-25T02:34:49.263Z,18.11
2023-08-25T02:37:17.540Z,18.11
2023-08-25T02:39:45.616Z,18.18
2023-08-25T02:42:14.592Z,18.06
2023-08-25T02:44:42.739Z,18.15
2023-08-25T02:47:11.331Z,18.10
2023-08-25T02:49:41.201Z,18.10
2023-08-25T02:52:09.486Z,18.11
2023-08-25T02:54:38.860Z,18.09
2023-08-25T02:57:07.208Z,18.07
2023-08-25T02:59:35.261Z,18.07
2023-08-25T03:02:03.509Z,18.05
2023-08-25T03:04:31.564Z,18.04
2023-08-25T03:07:02.657Z,18.04
2023-08-25T03:09:31.101Z,18.02
2023-08-25T03:11:59.851Z,18.04
2023-08-25T03:14:29.422Z,18.04
2023-08-25T03:16:59.820Z,17.96
2023-08-25T03:19:28.152Z,18.05
2023-08-25T03:21:56.563Z,18.04
2023-08-25T03:24:26.387Z,17.99
2023-08-25T03:26:55.025Z,18.03
2023-08-25T03:29:23.159Z,18.01
2023-08-25T03:31:51.341Z,17.95
2023-08-25T03:34:20.259Z,18.00
2023-08-25T03:36:48.505Z,17.99
2023-08-25T03:39:16.534Z,18.04
2023-08-25T03:41:46.032Z,18.00
2023-08-25T03:44:14.455Z,18.02
2023-08-25T03:46:42.700Z,18.08
2023-08-25T03:49:12.002Z,18.05
2023-08-25T03:51:40.305Z,18.05
2023-08-25T03:54:08.650Z,18.10
2023-08-25T03:56:37.201Z,18.02
2023-08-25T03:59:07.000Z,18.11
2023-08-25T04:01:35.894Z,18.09
2023-08-25T04:04:04.087Z,18.07
2023-08-25T04:06:32.254Z,18.04
2023-08-25T04:09:00.958Z,18.10
2023-08-25T04:11:28.954Z,18.11
2023-08-25T04:13:57.143Z,18.10
2023-08-25T04:16:26.892Z,18.07
2023-08-25T04:18:54.975Z,18.08
2023-08-25T04:21:23.078Z,18.13
2023-08-25T04:23:51.064Z,18.14
2023-08-25T04:26:19.651Z,18.15
2023-08-25T04:28:48.454Z,18.10
2023-08-25T04:31:16.972Z,18.17
2023-08-25T04:33:46.608Z,18.14
2023-08-25T04:36:14.901Z,18.17
2023-08-25T04:38:42.948Z,18.15
2023-08-25T04:41:11.111Z,18.16
2023-08-25T04:43:39.384Z,18.05
2023-08-25T04:46:09.289Z,18.13
2023-08-25T04:48:38.741Z,18.25
2023-08-25T04:51:10.631Z,18.29
2023-08-25T04:53:39.515Z,18.34
2023-08-25T04:56:07.746Z,18.37
2023-08-25T04:58:36.958Z,18.40
2023-08-25T05:01:05.938Z,18.48
2023-08-25T05:03:34.213Z,18.36
2023-08-25T05:06:02.979Z,18.47
2023-08-25T05:08:32.617Z,18.57
2023-08-25T05:11:01.689Z,18.63
2023-08-25T05:13:29.891Z,18.63
2023-08-25T05:15:58.201Z,18.67
2023-08-25T05:18:26.458Z,18.63
2023-08-25T05:21:00.949Z,18.68
2023-08-25T05:23:29.461Z,18.78
2023-08-25T05:25:59.137Z,18.82
2023-08-25T05:28:28.269Z,18.97
2023-08-25T05:30:56.692Z,19.02
2023-08-25T05:33:24.723Z,19.08
2023-08-25T05:35:52.990Z,19.15
2023-08-25T05:38:22.176Z,19.21
2023-08-25T05:40:50.381Z,19.27
2023-08-25T05:43:20.044Z,19.26
2023-08-25T05:45:48.207Z,19.28
2023-08-25T05:48:16.457Z,19.38
2023-08-25T05:50:44.522Z,19.46
2023-08-25T05:53:12.658Z,19.51
2023-08-25T05:55:41.045Z,19.55
2023-08-25T05:58:12.506Z,19.67
2023-08-25T06:00:41.942Z,19.73
2023-08-25T06:03:10.619Z,19.87
2023-08-25T06:05:38.724Z,20.00
2023-08-25T06:08:07.375Z,20.08
2023-08-25T06:10:36.316Z,20.17
2023-08-25T06:13:04.826Z,20.23
2023-08-25T06:15:32.939Z,20.27
2023-08-25T06:18:02.341Z,20.35
2023-08-25T06:20:31.883Z,20.38
2023-08-25T06:22:59.996Z,20.46
2023-08-25T06:25:28.104Z,20.52
2023-08-25T06:27:56.596Z,20.57
2023-08-25T06:30:25.193Z,20.60
2023-08-25T06:32:53.783Z,20.79
2023-08-25T06:35:23.664Z,20.82
2023-08-25T06:37:52.064Z,20.81
2023-08-25T06:40:21.309Z,20.96
2023-08-25T06:42:50.189Z,21.00
2023-08-25T06:45:18.723Z,21.11
2023-08-25T06:47:47.450Z,21.19
2023-08-25T06:50:16.074Z,21.35
2023-08-25T06:52:45.480Z,21.42
2023-08-25T06:55:14.022Z,21.55
2023-08-25T06:57:42.196Z,21.55
2023-08-25T07:00:13.311Z,21.76
2023-08-25T07:02:43.042Z,21.89
2023-08-25T07:05:11.759Z,22.09
2023-08-25T07:07:39.840Z,22.30
2023-08-25T07:10:10.608Z,22.40
2023-08-25T07:12:38.974Z,22.56
2023-08-25T07:15:08.199Z,22.61
2023-08-25T07:17:36.742Z,22.92
2023-08-25T07:20:06.434Z,23.03
2023-08-25T07:22:34.863Z,23.03
2023-08-25T07:25:03.672Z,22.91
2023-08-25T07:27:33.209Z,23.02
2023-08-25T07:30:01.723Z,23.22
2023-08-25T07:32:30.061Z,23.20
2023-08-25T07:34:58.566Z,23.36
2023-08-25T07:37:27.472Z,23.39
2023-08-25T07:39:57.406Z,23.26
2023-08-25T07:42:25.316Z,23.17
2023-08-25T07:44:54.976Z,23.04
2023-08-25T07:47:23.548Z,23.11
2023-08-25T07:49:52.114Z,23.24
2023-08-25T07:52:20.617Z,23.46
2023-08-25T07:54:48.827Z,23.31
2023-08-25T07:57:17.934Z,23.33
2023-08-25T07:59:46.314Z,22.99
2023-08-25T08:02:16.361Z,22.85
2023-08-25T08:04:45.200Z,22.51
2023-08-25T08:07:13.537Z,22.16
2023-08-25T08:09:41.738Z,22.23
2023-08-25T08:12:10.678Z,22.19
2023-08-25T08:14:45.759Z,22.20
2023-08-25T08:17:16.684Z,22.16
2023-08-25T08:19:46.240Z,22.08
2023-08-25T08:22:14.567Z,22.00
2023-08-25T08:24:50.736Z,22.01
2023-08-25T08:27:20.397Z,22.00
2023-08-25T08:29:49.525Z,21.90
2023-08-25T08:32:19.211Z,21.57
2023-08-25T08:34:48.563Z,20.94
2023-08-25T08:37:16.633Z,20.63
2023-08-25T08:39:45.525Z,20.43
2023-08-25T08:42:15.861Z,20.37
2023-08-25T08:44:48.224Z,20.25
2023-08-25T08:47:19.168Z,20.19
2023-08-25T08:49:48.133Z,20.17
2023-08-25T08:52:18.068Z,20.17
2023-08-25T08:54:46.807Z,20.34
2023-08-25T08:57:16.532Z,20.43
2023-08-25T08:59:45.172Z,20.55
2023-08-25T09:02:16.393Z,20.59
2023-08-25T09:04:47.598Z,20.81
2023-08-25T09:07:16.168Z,20.79
2023-08-25T09:09:49.155Z,20.60
2023-08-25T09:12:20.020Z,20.58
2023-08-25T09:14:48.667Z,20.49
2023-08-25T09:17:17.206Z,20.42
2023-08-25T09:19:46.654Z,20.47
2023-08-25T09:22:19.138Z,20.59
2023-08-25T09:24:47.827Z,20.85
2023-08-25T09:27:33.847Z,21.07
2023-08-25T09:30:05.544Z,21.40
2023-08-25T09:32:34.535Z,21.52
2023-08-25T09:35:14.699Z,21.70
2023-08-25T09:37:43.436Z,21.87
2023-08-25T09:40:14.257Z,21.83
2023-08-25T09:42:42.326Z,22.13
2023-08-25T09:45:11.436Z,22.20
2023-08-25T09:47:39.677Z,22.10
2023-08-25T09:50:09.282Z,22.03
2023-08-25T09:52:41.587Z,21.99
2023-08-25T09:55:11.978Z,21.93
2023-08-25T09:57:41.037Z,21.91
2023-08-25T10:00:11.403Z,21.84
2023-08-25T10:02:39.986Z,21.81
2023-08-25T10:05:11.625Z,21.68
2023-08-25T10:07:43.143Z,21.65
2023-08-25T10:10:12.763Z,21.63
2023-08-25T10:12:46.188Z,21.56
2023-08-25T10:15:17.114Z,21.50
2023-08-25T10:17:50.252Z,21.45
2023-08-25T10:20:19.595Z,21.29
2023-08-25T10:22:50.778Z,21.15
2023-08-25T10:25:21.027Z,20.95
2023-08-25T10:27:49.913Z,20.92
2023-08-25T10:30:18.567Z,20.99
2023-08-25T10:33:02.519Z,20.99
2023-08-25T10:35:44.760Z,21.15
2023-08-25T10:38:40.793Z,21.11
2023-08-25T10:41:21.510Z,21.14
2023-08-25T10:43:53.955Z,21.19
2023-08-25T10:46:32.390Z,21.28
2023-08-25T10:49:14.075Z,21.28
2023-08-25T10:51:42.884Z,21.38
2023-08-25T10:54:25.186Z,21.44
2023-08-25T10:56:54.169Z,21.51
2023-08-25T10:59:23.683Z,21.64
2023-08-25T11:02:00.997Z,21.80
2023-08-25T11:04:31.631Z,21.87
2023-08-25T11:07:01.007Z,22.14
2023-08-25T11:09:36.922Z,22.34
2023-08-25T11:12:09.948Z,22.63
2023-08-25T11:14:40.094Z,22.74
2023-08-25T11:17:10.234Z,22.93
2023-08-25T11:19:41.376Z,22.95
2023-08-25T11:22:13.485Z,23.05
2023-08-25T11:24:43.284Z,23.31
2023-08-25T11:27:16.424Z,23.47
2023-08-25T11:29:46.964Z,23.42
2023-08-25T11:32:15.541Z,23.42
2023-08-25T11:34:44.633Z,23.40
2023-08-25T11:37:14.579Z,23.41
2023-08-25T11:39:47.747Z,23.20
2023-08-25T11:42:22.267Z,23.24
2023-08-25T11:44:51.457Z,23.43
2023-08-25T11:47:20.838Z,23.51
2023-08-25T11:49:50.180Z,23.76
2023-08-25T11:52:18.440Z,23.90
2023-08-25T11:54:48.802Z,23.78
2023-08-25T11:57:17.239Z,23.88
2023-08-25T11:59:48.170Z,24.25
2023-08-25T12:02:17.811Z,24.48
2023-08-25T12:04:59.603Z,24.54
2023-08-25T12:07:30.147Z,24.53
2023-08-25T12:10:02.307Z,24.58
2023-08-25T12:12:34.216Z,24.30
2023-08-25T12:15:02.261Z,24.39
2023-08-25T12:17:31.363Z,24.09
2023-08-25T12:20:00.557Z,24.28
2023-08-25T12:22:29.177Z,24.33
2023-08-25T12:24:57.591Z,24.41
2023-08-25T12:27:27.290Z,24.22
2023-08-25T12:29:55.753Z,24.39
2023-08-25T12:32:24.391Z,24.48
2023-08-25T12:34:52.596Z,24.60
2023-08-25T12:37:21.368Z,24.80
2023-08-25T12:39:51.945Z,24.93
2023-08-25T12:42:21.069Z,24.82
2023-08-25T12:44:50.465Z,25.13
2023-08-25T12:47:18.772Z,25.38
2023-08-25T12:49:47.123Z,25.52
2023-08-25T12:52:17.993Z,25.39
2023-08-25T12:54:46.808Z,25.50
2023-08-25T12:57:15.396Z,25.51
2023-08-25T12:59:43.990Z,25.35
2023-08-25T13:02:15.563Z,25.40
2023-08-25T13:04:43.828Z,25.27
2023-08-25T13:07:13.913Z,25.32
2023-08-25T13:09:42.883Z,25.33
2023-08-25T13:12:11.784Z,25.33
2023-08-25T13:14:40.679Z,25.32
2023-08-25T13:17:08.858Z,25.14
2023-08-25T13:19:39.902Z,25.24
2023-08-25T13:22:09.053Z,25.31
2023-08-25T13:24:37.384Z,25.24
2023-08-25T13:27:06.511Z,25.18
2023-08-25T13:29:34.818Z,25.10
2023-08-25T13:32:03.178Z,25.00
2023-08-25T13:34:31.274Z,24.79
2023-08-25T13:37:00.876Z,24.86
2023-08-25T13:39:29.033Z,24.85
2023-08-25T13:41:57.109Z,24.74
2023-08-25T13:44:25.174Z,25.00
2023-08-25T13:46:53.427Z,25.01
2023-08-25T13:49:21.793Z,25.15
2023-08-25T13:51:49.937Z,25.27
2023-08-25T13:54:20.209Z,25.37
2023-08-25T13:56:48.730Z,25.67
2023-08-25T13:59:17.327Z,25.76
2023-08-25T14:01:45.386Z,25.71
2023-08-25T14:04:13.782Z,25.48
2023-08-25T14:06:42.123Z,25.42
2023-08-25T14:09:10.398Z,25.34
2023-08-25T14:11:40.058Z,25.11
2023-08-25T14:14:10.397Z,25.04
2023-08-25T14:16:38.679Z,24.98
2023-08-25T14:19:08.183Z,24.70
2023-08-25T14:21:36.452Z,24.76
2023-08-25T14:24:05.146Z,24.69
2023-08-25T14:26:33.344Z,24.62
2023-08-25T14:29:04.207Z,24.59
2023-08-25T14:31:32.283Z,24.44
2023-08-25T14:34:00.644Z,24.25
2023-08-25T14:36:29.950Z,24.10
2023-08-25T14:38:59.052Z,24.04
2023-08-25T14:41:27.386Z,24.08
2023-08-25T14:43:55.454Z,24.13
2023-08-25T14:46:27.784Z,24.31
2023-08-25T14:48:56.858Z,24.54
2023-08-25T14:51:25.086Z,24.65
2023-08-25T14:53:54.668Z,24.85
2023-08-25T14:56:22.937Z,24.58
2023-08-25T14:58:50.954Z,24.85
2023-08-25T15:01:19.865Z,25.01
2023-08-25T15:03:49.493Z,24.99
2023-08-25T15:06:17.841Z,25.04
2023-08-25T15:08:45.979Z,25.06
2023-08-25T15:11:14.772Z,25.11
2023-08-25T15:13:42.955Z,25.30
2023-08-25T15:16:11.117Z,25.20
2023-08-25T15:18:40.407Z,25.04
2023-08-25T15:21:10.143Z,25.23
2023-08-25T15:23:38.262Z,25.27
2023-08-25T15:26:06.614Z,25.21
2023-08-25T15:28:35.095Z,25.30
2023-08-25T15:31:07.907Z,25.41
2023-08-25T15:33:37.445Z,25.46
2023-08-25T15:36:07.483Z,25.53
2023-08-25T15:38:37.463Z,25.49
2023-08-25T15:41:08.673Z,25.57
2023-08-25T15:43:37.263Z,25.58
2023-08-25T15:46:05.761Z,25.62
2023-08-25T15:48:37.176Z,25.53
2023-08-25T15:51:07.057Z,25.70
2023-08-25T15:53:37.588Z,25.72
2023-08-25T15:56:06.711Z,25.99
2023-08-25T15:58:34.824Z,26.03
2023-08-25T16:01:04.435Z,26.01
2023-08-25T16:03:33.840Z,25.92
2023-08-25T16:06:05.327Z,25.79
2023-08-25T16:08:34.563Z,25.81
2023-08-25T16:11:07.712Z,25.59
2023-08-25T16:13:36.865Z,25.70
2023-08-25T16:16:05.689Z,25.75
2023-08-25T16:18:34.490Z,25.88
2023-08-25T16:21:04.054Z,25.99
2023-08-25T16:23:34.529Z,26.32
2023-08-25T16:26:04.863Z,26.22
2023-08-25T16:28:33.752Z,26.37
2023-08-25T16:31:05.269Z,26.24
2023-08-25T16:33:33.712Z,26.52
2023-08-25T16:36:04.487Z,26.54
2023-08-25T16:38:33.759Z,26.61
2023-08-25T16:41:03.493Z,26.49
2023-08-25T16:43:31.638Z,26.62
2023-08-25T16:45:59.665Z,26.90
2023-08-25T16:48:27.954Z,27.08
2023-08-25T16:50:56.050Z,26.92
2023-08-25T16:53:25.564Z,27.14
2023-08-25T16:55:54.572Z,27.14
2023-08-25T16:58:25.965Z,27.45
2023-08-25T17:00:54.092Z,26.90
2023-08-25T17:03:22.633Z,26.90
2023-08-25T17:05:51.256Z,26.76
2023-08-25T17:08:20.899Z,26.79
2023-08-25T17:10:50.727Z,26.40
2023-08-25T17:13:19.226Z,26.00
2023-08-25T17:15:49.182Z,25.64
2023-08-25T17:18:17.942Z,25.36
2023-08-25T17:20:46.148Z,25.20
2023-08-25T17:23:14.476Z,25.04
2023-08-25T17:25:42.850Z,24.81
2023-08-25T17:28:11.325Z,24.71
2023-08-25T17:30:39.446Z,24.52
2023-08-25T17:33:09.338Z,24.34
2023-08-25T17:35:43.100Z,24.25
2023-08-25T17:38:11.795Z,24.15
2023-08-25T17:40:42.900Z,24.04
2023-08-25T17:43:11.670Z,23.97
2023-08-25T17:45:40.087Z,23.92
2023-08-25T17:48:10.622Z,23.81
2023-08-25T17:50:39.408Z,23.58
2023-08-25T17:53:08.329Z,23.58
2023-08-25T17:55:36.879Z,23.54
2023-08-25T17:58:05.710Z,23.45
2023-08-25T18:00:34.093Z,23.40
2023-08-25T18:03:02.228Z,23.36
2023-08-25T18:05:33.274Z,23.29
2023-08-25T18:08:01.512Z,23.23
2023-08-25T18:10:30.139Z,23.20
2023-08-25T18:12:58.258Z,23.14
2023-08-25T18:15:26.817Z,23.08
2023-08-25T18:17:55.016Z,23.00
2023-08-25T18:20:23.589Z,22.96
2023-08-25T18:22:53.803Z,22.88
2023-08-25T18:25:22.354Z,22.86
2023-08-25T18:27:50.478Z,22.78
2023-08-25T18:30:21.179Z,22.74
2023-08-25T18:32:50.980Z,22.66
2023-08-25T18:35:19.303Z,22.59
2023-08-25T18:37:47.685Z,22.50
2023-08-25T18:40:17.708Z,22.39
2023-08-25T18:42:45.952Z,22.32
2023-08-25T18:45:14.353Z,22.21
2023-08-25T18:47:42.480Z,22.16
2023-08-25T18:50:15.259Z,22.20
2023-08-25T18:52:43.547Z,22.16
2023-08-25T18:55:12.635Z,22.12
2023-08-25T18:57:42.285Z,22.09
2023-08-25T19:00:11.804Z,22.06
2023-08-25T19:02:39.984Z,22.01
2023-08-25T19:05:09.166Z,21.98
2023-08-25T19:07:37.671Z,21.93
2023-08-25T19:10:06.526Z,21.81
2023-08-25T19:12:34.802Z,21.81
2023-08-25T19:15:05.176Z,21.85
2023-08-25T19:17:34.594Z,21.84
2023-08-25T19:20:03.264Z,21.82
2023-08-25T19:22:31.510Z,21.77
2023-08-25T19:24:59.690Z,21.73
2023-08-25T19:27:28.120Z,21.75
2023-08-25T19:29:57.036Z,21.73
2023-08-25T19:32:26.466Z,21.75
2023-08-25T19:34:54.628Z,21.69
2023-08-25T19:37:23.067Z,21.74
2023-08-25T19:39:53.538Z,21.73
2023-08-25T19:42:22.221Z,21.67
2023-08-25T19:44:50.872Z,21.77
2023-08-25T19:47:19.220Z,21.76
2023-08-25T19:49:50.394Z,21.75
2023-08-25T19:52:19.101Z,21.70
2023-08-25T19:54:47.237Z,21.68
2023-08-25T19:57:17.405Z,21.59
2023-08-25T19:59:45.568Z,21.60
2023-08-25T20:02:13.714Z,21.64
2023-08-25T20:04:41.819Z,21.63
2023-08-25T20:07:11.291Z,21.61
2023-08-25T20:09:39.422Z,21.60
2023-08-25T20:12:08.652Z,21.58
2023-08-25T20:14:37.611Z,21.54
2023-08-25T20:17:06.196Z,21.54
2023-08-25T20:19:35.641Z,21.51
2023-08-25T20:22:05.119Z,21.41
2023-08-25T20:24:36.110Z,21.46
2023-08-25T20:27:04.416Z,21.42
2023-08-25T20:29:32.821Z,21.27
2023-08-25T20:32:01.191Z,21.35
2023-08-25T20:34:29.513Z,21.31
2023-08-25T20:36:57.819Z,21.31
2023-08-25T20:39:26.334Z,21.25
2023-08-25T20:41:57.617Z,21.18
2023-08-25T20:44:26.506Z,21.26
2023-08-25T20:46:54.663Z,21.22
2023-08-25T20:49:24.972Z,21.20
2023-08-25T20:51:54.078Z,21.17
2023-08-25T20:54:22.890Z,21.19
2023-08-25T20:56:51.098Z,21.20
2023-08-25T20:59:20.742Z,21.21
2023-08-25T21:01:49.452Z,21.10
2023-08-25T21:04:17.837Z,21.13
2023-08-25T21:06:46.039Z,21.11
2023-08-25T21:09:14.741Z,21.04
2023-08-25T21:11:44.144Z,21.04
2023-08-25T21:14:12.510Z,20.95
2023-08-25T21:16:42.217Z,20.99
2023-08-25T21:19:11.416Z,20.98
2023-08-25T21:21:41.141Z,20.94
2023-08-25T21:24:11.315Z,20.91
2023-08-25T21:26:40.058Z,20.93
2023-08-25T21:29:08.924Z,20.92
2023-08-25T21:31:37.860Z,20.86
2023-08-25T21:34:09.168Z,20.94
2023-08-25T21:36:38.067Z,20.95
2023-08-25T21:39:06.864Z,20.95
2023-08-25T21:41:35.649Z,20.99
2023-08-25T21:44:04.158Z,21.03
2023-08-25T21:46:37.437Z,21.08
2023-08-25T21:49:08.486Z,21.05
2023-08-25T21:51:36.735Z,20.90
2023-08-25T21:54:07.055Z,20.72
2023-08-25T21:56:39.358Z,20.44
2023-08-25T21:59:07.583Z,20.25
2023-08-25T22:01:36.898Z,20.16
2023-08-25T22:04:05.949Z,20.00
2023-08-25T22:06:36.902Z,19.90
2023-08-25T22:09:06.283Z,19.85
2023-08-25T22:11:34.887Z,19.83
2023-08-25T22:14:03.748Z,19.80
2023-08-25T22:16:34.869Z,19.82
2023-08-25T22:19:04.496Z,19.77
2023-08-25T22:21:33.280Z,19.74
2023-08-25T22:24:03.313Z,19.73
2023-08-25T22:26:31.531Z,19.79
2023-08-25T22:28:59.758Z,19.79
2023-08-25T22:31:27.872Z,19.79
2023-08-25T22:36:28.680Z,19.84
2023-08-25T22:38:57.405Z,19.87
2023-08-25T22:41:28.079Z,19.93
2023-08-25T22:43:56.520Z,19.92
2023-08-25T22:46:24.711Z,19.90
2023-08-25T22:48:53.758Z,19.87
2023-08-25T22:51:21.988Z,19.76
2023-08-25T22:53:50.473Z,19.80
2023-08-25T22:56:18.834Z,19.78
2023-08-25T22:58:48.927Z,19.74
2023-08-25T23:01:18.602Z,19.65
2023-08-25T23:03:47.050Z,19.74
2023-08-25T23:06:15.936Z,19.68
2023-08-25T23:08:44.347Z,19.49
2023-08-25T23:11:13.883Z,19.56
2023-08-25T23:13:42.441Z,19.57
2023-08-25T23:16:12.104Z,19.51
2023-08-25T23:18:41.829Z,19.52
2023-08-25T23:21:10.363Z,19.50
2023-08-25T23:23:41.424Z,19.47
2023-08-25T23:26:10.239Z,19.46
2023-08-25T23:28:39.029Z,19.34
2023-08-25T23:31:11.376Z,19.46
2023-08-25T23:33:41.184Z,19.42
2023-08-25T23:36:09.562Z,19.42
2023-08-25T23:38:38.036Z,19.39
2023-08-25T23:41:06.333Z,19.32
2023-08-25T23:43:35.293Z,19.32
2023-08-25T23:46:07.728Z,19.35
2023-08-25T23:48:36.187Z,19.33
2023-08-25T23:51:06.234Z,19.34
2023-08-25T23:53:34.769Z,19.36
2023-08-25T23:56:03.091Z,19.32
2023-08-25T23:58:31.655Z,19.27
